sensor_id;sensor_type;location;lat;lon;timestamp;P1;durP1;ratioP1;P2;durP2;ratioP2
65071;SDS011;51663;52.310;17.016;2022-12-04T00:02:34;92.33;;;37.67;;
65071;SDS011;51663;52.310;17.016;2022-12-04T00:05:36;88.17;;;38.57;;
65071;SDS011;51663;52.310;17.016;2022-12-04T00:08:38;91.47;;;37.47;;
65071;SDS011;51663;52.310;17.016;2022-12-04T00:11:40;93.37;;;38.20;;
65071;SDS011;51663;52.310;17.016;2022-12-04T00:14:42;93.70;;;38.60;;
65071;SDS011;51663;52.310;17.016;2022-12-04T00:18:04;96.83;;;38.73;;
65071;SDS011;51663;52.310;17.016;2022-12-04T00:21:08;93.73;;;39.13;;
65071;SDS011;51663;52.310;17.016;2022-12-04T00:24:11;87.47;;;35.07;;
65071;SDS011;51663;52.310;17.016;2022-12-04T00:27:13;88.43;;;35.90;;
65071;SDS011;51663;52.310;17.016;2022-12-04T00:30:15;92.67;;;37.97;;
65071;SDS011;51663;52.310;17.016;2022-12-04T00:33:17;84.13;;;36.50;;
65071;SDS011;51663;52.310;17.016;2022-12-04T00:36:20;79.47;;;35.20;;
65071;SDS011;51663;52.310;17.016;2022-12-04T00:39:24;82.00;;;35.30;;
65071;SDS011;51663;52.310;17.016;2022-12-04T00:42:26;84.60;;;35.13;;
65071;SDS011;51663;52.310;17.016;2022-12-04T00:45:28;80.03;;;34.40;;
65071;SDS011;51663;52.310;17.016;2022-12-04T00:48:30;92.17;;;35.97;;
65071;SDS011;51663;52.310;17.016;2022-12-04T00:51:35;83.27;;;34.03;;
65071;SDS011;51663;52.310;17.016;2022-12-04T00:54:38;81.33;;;32.97;;
65071;SDS011;51663;52.310;17.016;2022-12-04T00:57:43;86.40;;;34.53;;
65071;SDS011;51663;52.310;17.016;2022-12-04T01:00:45;81.07;;;34.33;;
65071;SDS011;51663;52.310;17.016;2022-12-04T01:03:48;77.67;;;33.83;;
65071;SDS011;51663;52.310;17.016;2022-12-04T01:06:50;84.17;;;34.43;;
65071;SDS011;51663;52.310;17.016;2022-12-04T01:09:54;78.50;;;33.63;;
65071;SDS011;51663;52.310;17.016;2022-12-04T01:12:57;82.73;;;33.57;;
65071;SDS011;51663;52.310;17.016;2022-12-04T01:15:59;82.10;;;33.10;;
65071;SDS011;51663;52.310;17.016;2022-12-04T01:19:01;78.97;;;33.47;;
65071;SDS011;51663;52.310;17.016;2022-12-04T01:22:04;86.97;;;33.90;;
65071;SDS011;51663;52.310;17.016;2022-12-04T01:25:06;77.90;;;32.13;;
65071;SDS011;51663;52.310;17.016;2022-12-04T01:28:08;86.57;;;35.47;;
65071;SDS011;51663;52.310;17.016;2022-12-04T01:31:11;87.53;;;34.33;;
65071;SDS011;51663;52.310;17.016;2022-12-04T01:34:15;85.50;;;33.97;;
65071;SDS011;51663;52.310;17.016;2022-12-04T01:37:17;79.87;;;33.77;;
65071;SDS011;51663;52.310;17.016;2022-12-04T01:40:19;81.13;;;35.40;;
65071;SDS011;51663;52.310;17.016;2022-12-04T01:43:21;78.27;;;33.40;;
65071;SDS011;51663;52.310;17.016;2022-12-04T01:46:24;81.63;;;34.13;;
65071;SDS011;51663;52.310;17.016;2022-12-04T01:49:37;82.13;;;33.87;;
65071;SDS011;51663;52.310;17.016;2022-12-04T01:52:43;81.83;;;34.23;;
65071;SDS011;51663;52.310;17.016;2022-12-04T01:55:45;79.37;;;33.90;;
65071;SDS011;51663;52.310;17.016;2022-12-04T01:58:50;79.20;;;33.73;;
65071;SDS011;51663;52.310;17.016;2022-12-04T02:02:05;86.30;;;33.37;;
65071;SDS011;51663;52.310;17.016;2022-12-04T02:05:11;85.30;;;34.00;;
65071;SDS011;51663;52.310;17.016;2022-12-04T02:08:14;79.70;;;33.57;;
65071;SDS011;51663;52.310;17.016;2022-12-04T02:11:26;83.70;;;34.23;;
65071;SDS011;51663;52.310;17.016;2022-12-04T02:21:42;76.63;;;31.17;;
65071;SDS011;51663;52.310;17.016;2022-12-04T02:24:57;72.20;;;31.43;;
65071;SDS011;51663;52.310;17.016;2022-12-04T02:28:07;83.97;;;33.97;;
65071;SDS011;51663;52.310;17.016;2022-12-04T02:31:11;88.57;;;34.90;;
65071;SDS011;51663;52.310;17.016;2022-12-04T02:34:20;85.90;;;34.20;;
65071;SDS011;51663;52.310;17.016;2022-12-04T02:37:34;83.77;;;31.73;;
65071;SDS011;51663;52.310;17.016;2022-12-04T02:40:57;85.77;;;34.13;;
65071;SDS011;51663;52.310;17.016;2022-12-04T02:44:09;86.33;;;35.43;;
65071;SDS011;51663;52.310;17.016;2022-12-04T02:47:33;88.37;;;33.90;;
65071;SDS011;51663;52.310;17.016;2022-12-04T02:50:37;89.73;;;35.80;;
65071;SDS011;51663;52.310;17.016;2022-12-04T02:53:43;87.07;;;33.70;;
65071;SDS011;51663;52.310;17.016;2022-12-04T02:56:55;86.80;;;33.60;;
65071;SDS011;51663;52.310;17.016;2022-12-04T03:00:02;84.10;;;33.57;;
65071;SDS011;51663;52.310;17.016;2022-12-04T03:03:10;80.30;;;35.03;;
65071;SDS011;51663;52.310;17.016;2022-12-04T03:06:16;75.53;;;30.90;;
65071;SDS011;51663;52.310;17.016;2022-12-04T03:09:22;76.90;;;32.50;;
65071;SDS011;51663;52.310;17.016;2022-12-04T03:12:29;82.17;;;34.57;;
65071;SDS011;51663;52.310;17.016;2022-12-04T03:16:39;79.23;;;31.43;;
65071;SDS011;51663;52.310;17.016;2022-12-04T03:19:24;86.13;;;33.57;;
65071;SDS011;51663;52.310;17.016;2022-12-04T03:22:30;79.23;;;32.67;;
65071;SDS011;51663;52.310;17.016;2022-12-04T03:29:07;85.70;;;33.13;;
65071;SDS011;51663;52.310;17.016;2022-12-04T03:32:26;80.03;;;31.63;;
65071;SDS011;51663;52.310;17.016;2022-12-04T03:35:41;85.03;;;32.83;;
65071;SDS011;51663;52.310;17.016;2022-12-04T03:39:02;81.17;;;34.00;;
65071;SDS011;51663;52.310;17.016;2022-12-04T03:45:20;88.77;;;35.37;;
65071;SDS011;51663;52.310;17.016;2022-12-04T03:48:37;82.17;;;32.60;;
65071;SDS011;51663;52.310;17.016;2022-12-04T03:51:50;85.47;;;33.93;;
65071;SDS011;51663;52.310;17.016;2022-12-04T03:55:00;83.63;;;33.17;;
65071;SDS011;51663;52.310;17.016;2022-12-04T03:58:07;85.23;;;33.80;;
65071;SDS011;51663;52.310;17.016;2022-12-04T04:01:14;78.97;;;33.23;;
65071;SDS011;51663;52.310;17.016;2022-12-04T04:04:21;82.67;;;34.23;;
65071;SDS011;51663;52.310;17.016;2022-12-04T04:07:30;80.73;;;33.23;;
65071;SDS011;51663;52.310;17.016;2022-12-04T04:10:36;83.77;;;33.87;;
65071;SDS011;51663;52.310;17.016;2022-12-04T04:13:40;86.90;;;34.97;;
65071;SDS011;51663;52.310;17.016;2022-12-04T04:17:12;84.30;;;35.43;;
65071;SDS011;51663;52.310;17.016;2022-12-04T04:20:41;78.20;;;32.87;;
65071;SDS011;51663;52.310;17.016;2022-12-04T04:24:05;81.80;;;33.30;;
65071;SDS011;51663;52.310;17.016;2022-12-04T04:27:17;87.93;;;35.93;;
65071;SDS011;51663;52.310;17.016;2022-12-04T04:30:19;82.07;;;34.40;;
65071;SDS011;51663;52.310;17.016;2022-12-04T04:33:22;82.83;;;32.70;;
65071;SDS011;51663;52.310;17.016;2022-12-04T04:36:40;82.57;;;32.77;;
65071;SDS011;51663;52.310;17.016;2022-12-04T04:40:06;79.27;;;32.10;;
65071;SDS011;51663;52.310;17.016;2022-12-04T04:43:17;77.03;;;33.57;;
65071;SDS011;51663;52.310;17.016;2022-12-04T04:46:37;74.27;;;31.83;;
65071;SDS011;51663;52.310;17.016;2022-12-04T04:49:42;79.53;;;32.43;;
65071;SDS011;51663;52.310;17.016;2022-12-04T04:52:50;81.07;;;35.27;;
65071;SDS011;51663;52.310;17.016;2022-12-04T04:55:56;78.77;;;34.67;;
65071;SDS011;51663;52.310;17.016;2022-12-04T04:58:59;70.47;;;31.13;;
65071;SDS011;51663;52.310;17.016;2022-12-04T05:02:01;75.40;;;34.00;;
65071;SDS011;51663;52.310;17.016;2022-12-04T05:05:03;75.13;;;33.00;;
65071;SDS011;51663;52.310;17.016;2022-12-04T05:08:05;80.33;;;36.07;;
65071;SDS011;51663;52.310;17.016;2022-12-04T05:11:09;83.47;;;34.87;;
65071;SDS011;51663;52.310;17.016;2022-12-04T05:14:13;84.90;;;35.27;;
65071;SDS011;51663;52.310;17.016;2022-12-04T05:17:16;80.30;;;34.37;;
65071;SDS011;51663;52.310;17.016;2022-12-04T05:20:18;73.83;;;33.53;;
65071;SDS011;51663;52.310;17.016;2022-12-04T05:23:20;82.17;;;35.90;;
65071;SDS011;51663;52.310;17.016;2022-12-04T05:26:22;76.73;;;34.00;;
65071;SDS011;51663;52.310;17.016;2022-12-04T05:29:24;76.70;;;34.57;;
65071;SDS011;51663;52.310;17.016;2022-12-04T05:32:28;79.00;;;35.33;;
65071;SDS011;51663;52.310;17.016;2022-12-04T05:35:31;78.50;;;35.93;;
65071;SDS011;51663;52.310;17.016;2022-12-04T05:38:33;79.40;;;34.50;;
65071;SDS011;51663;52.310;17.016;2022-12-04T05:41:35;75.73;;;35.60;;
65071;SDS011;51663;52.310;17.016;2022-12-04T05:44:36;74.50;;;32.40;;
65071;SDS011;51663;52.310;17.016;2022-12-04T05:47:39;77.73;;;34.83;;
65071;SDS011;51663;52.310;17.016;2022-12-04T05:50:42;70.67;;;32.73;;
65071;SDS011;51663;52.310;17.016;2022-12-04T05:53:44;80.37;;;34.87;;
65071;SDS011;51663;52.310;17.016;2022-12-04T05:56:46;69.70;;;34.17;;
65071;SDS011;51663;52.310;17.016;2022-12-04T05:59:49;79.43;;;36.50;;
65071;SDS011;51663;52.310;17.016;2022-12-04T06:02:51;76.83;;;35.57;;
65071;SDS011;51663;52.310;17.016;2022-12-04T06:05:54;75.57;;;34.30;;
65071;SDS011;51663;52.310;17.016;2022-12-04T06:08:56;76.00;;;34.83;;
65071;SDS011;51663;52.310;17.016;2022-12-04T06:12:00;73.27;;;34.50;;
65071;SDS011;51663;52.310;17.016;2022-12-04T06:15:02;82.13;;;36.60;;
65071;SDS011;51663;52.310;17.016;2022-12-04T06:18:04;78.57;;;36.40;;
65071;SDS011;51663;52.310;17.016;2022-12-04T06:21:07;77.00;;;35.23;;
65071;SDS011;51663;52.310;17.016;2022-12-04T06:24:14;75.10;;;34.47;;
65071;SDS011;51663;52.310;17.016;2022-12-04T06:27:17;73.80;;;35.60;;
65071;SDS011;51663;52.310;17.016;2022-12-04T06:30:29;73.13;;;33.47;;
65071;SDS011;51663;52.310;17.016;2022-12-04T06:33:36;70.77;;;32.57;;
65071;SDS011;51663;52.310;17.016;2022-12-04T06:36:39;74.27;;;34.90;;
65071;SDS011;51663;52.310;17.016;2022-12-04T06:39:40;76.20;;;34.87;;
65071;SDS011;51663;52.310;17.016;2022-12-04T06:42:43;69.93;;;33.87;;
65071;SDS011;51663;52.310;17.016;2022-12-04T06:45:44;69.83;;;32.90;;
65071;SDS011;51663;52.310;17.016;2022-12-04T06:48:47;70.63;;;34.57;;
65071;SDS011;51663;52.310;17.016;2022-12-04T06:51:50;66.00;;;32.10;;
65071;SDS011;51663;52.310;17.016;2022-12-04T06:54:52;69.43;;;32.93;;
65071;SDS011;51663;52.310;17.016;2022-12-04T06:57:54;71.33;;;33.20;;
65071;SDS011;51663;52.310;17.016;2022-12-04T07:00:56;68.83;;;31.53;;
65071;SDS011;51663;52.310;17.016;2022-12-04T07:04:01;70.37;;;33.73;;
65071;SDS011;51663;52.310;17.016;2022-12-04T07:07:07;74.97;;;34.93;;
65071;SDS011;51663;52.310;17.016;2022-12-04T07:10:10;69.00;;;33.90;;
65071;SDS011;51663;52.310;17.016;2022-12-04T07:13:12;72.83;;;32.47;;
65071;SDS011;51663;52.310;17.016;2022-12-04T07:16:15;64.37;;;30.40;;
65071;SDS011;51663;52.310;17.016;2022-12-04T07:19:19;65.87;;;32.63;;
65071;SDS011;51663;52.310;17.016;2022-12-04T07:22:21;61.10;;;30.90;;
65071;SDS011;51663;52.310;17.016;2022-12-04T07:25:23;69.70;;;31.47;;
65071;SDS011;51663;52.310;17.016;2022-12-04T07:28:25;64.03;;;29.90;;
65071;SDS011;51663;52.310;17.016;2022-12-04T07:31:28;64.43;;;30.67;;
65071;SDS011;51663;52.310;17.016;2022-12-04T07:34:32;60.90;;;28.43;;
65071;SDS011;51663;52.310;17.016;2022-12-04T07:37:36;59.10;;;30.23;;
65071;SDS011;51663;52.310;17.016;2022-12-04T07:40:38;63.73;;;29.77;;
65071;SDS011;51663;52.310;17.016;2022-12-04T07:43:40;62.47;;;29.53;;
65071;SDS011;51663;52.310;17.016;2022-12-04T07:46:42;54.93;;;29.40;;
65071;SDS011;51663;52.310;17.016;2022-12-04T07:49:44;60.43;;;29.43;;
65071;SDS011;51663;52.310;17.016;2022-12-04T07:52:46;53.47;;;26.87;;
65071;SDS011;51663;52.310;17.016;2022-12-04T07:55:50;62.07;;;29.17;;
65071;SDS011;51663;52.310;17.016;2022-12-04T07:58:53;60.53;;;28.20;;
65071;SDS011;51663;52.310;17.016;2022-12-04T08:01:55;56.00;;;27.93;;
65071;SDS011;51663;52.310;17.016;2022-12-04T08:04:57;60.97;;;29.03;;
65071;SDS011;51663;52.310;17.016;2022-12-04T08:07:59;57.80;;;27.13;;
65071;SDS011;51663;52.310;17.016;2022-12-04T08:11:08;60.00;;;29.23;;
65071;SDS011;51663;52.310;17.016;2022-12-04T08:14:11;58.30;;;27.17;;
65071;SDS011;51663;52.310;17.016;2022-12-04T08:17:13;58.27;;;28.30;;
65071;SDS011;51663;52.310;17.016;2022-12-04T08:20:16;58.83;;;29.40;;
65071;SDS011;51663;52.310;17.016;2022-12-04T08:23:18;52.73;;;26.30;;
65071;SDS011;51663;52.310;17.016;2022-12-04T08:26:20;56.23;;;28.50;;
65071;SDS011;51663;52.310;17.016;2022-12-04T08:29:23;54.57;;;28.03;;
65071;SDS011;51663;52.310;17.016;2022-12-04T08:32:26;57.53;;;28.77;;
65071;SDS011;51663;52.310;17.016;2022-12-04T08:35:27;53.33;;;28.00;;
65071;SDS011;51663;52.310;17.016;2022-12-04T08:38:30;53.63;;;27.57;;
65071;SDS011;51663;52.310;17.016;2022-12-04T08:41:32;52.57;;;27.50;;
65071;SDS011;51663;52.310;17.016;2022-12-04T08:44:34;54.67;;;27.73;;
65071;SDS011;51663;52.310;17.016;2022-12-04T08:47:36;57.73;;;28.33;;
65071;SDS011;51663;52.310;17.016;2022-12-04T08:50:42;52.83;;;27.03;;
65071;SDS011;51663;52.310;17.016;2022-12-04T08:53:45;47.73;;;24.23;;
65071;SDS011;51663;52.310;17.016;2022-12-04T08:56:47;49.20;;;26.13;;
65071;SDS011;51663;52.310;17.016;2022-12-04T08:59:49;49.70;;;24.87;;
65071;SDS011;51663;52.310;17.016;2022-12-04T09:02:51;46.90;;;25.40;;
65071;SDS011;51663;52.310;17.016;2022-12-04T09:05:56;51.33;;;26.33;;
65071;SDS011;51663;52.310;17.016;2022-12-04T09:09:01;50.07;;;27.00;;
65071;SDS011;51663;52.310;17.016;2022-12-04T09:12:03;53.03;;;27.07;;
65071;SDS011;51663;52.310;17.016;2022-12-04T09:15:06;47.60;;;25.73;;
65071;SDS011;51663;52.310;17.016;2022-12-04T09:18:08;52.10;;;26.73;;
65071;SDS011;51663;52.310;17.016;2022-12-04T09:21:14;47.73;;;25.17;;
65071;SDS011;51663;52.310;17.016;2022-12-04T09:24:19;49.90;;;27.07;;
65071;SDS011;51663;52.310;17.016;2022-12-04T09:27:21;53.30;;;27.50;;
65071;SDS011;51663;52.310;17.016;2022-12-04T09:30:24;47.30;;;25.53;;
65071;SDS011;51663;52.310;17.016;2022-12-04T09:33:26;47.47;;;24.93;;
65071;SDS011;51663;52.310;17.016;2022-12-04T09:36:28;48.07;;;25.50;;
65071;SDS011;51663;52.310;17.016;2022-12-04T09:39:31;52.77;;;26.97;;
65071;SDS011;51663;52.310;17.016;2022-12-04T09:42:46;51.83;;;25.60;;
65071;SDS011;51663;52.310;17.016;2022-12-04T09:45:57;51.37;;;26.73;;
65071;SDS011;51663;52.310;17.016;2022-12-04T09:49:06;50.43;;;27.53;;
65071;SDS011;51663;52.310;17.016;2022-12-04T09:52:18;44.73;;;25.30;;
65071;SDS011;51663;52.310;17.016;2022-12-04T09:55:46;48.73;;;26.63;;
65071;SDS011;51663;52.310;17.016;2022-12-04T10:09:10;50.50;;;26.63;;
65071;SDS011;51663;52.310;17.016;2022-12-04T10:12:30;44.40;;;24.03;;
65071;SDS011;51663;52.310;17.016;2022-12-04T10:15:48;51.80;;;26.87;;
65071;SDS011;51663;52.310;17.016;2022-12-04T10:19:09;47.83;;;26.30;;
65071;SDS011;51663;52.310;17.016;2022-12-04T10:22:29;53.77;;;28.27;;
65071;SDS011;51663;52.310;17.016;2022-12-04T10:25:55;44.67;;;24.70;;
65071;SDS011;51663;52.310;17.016;2022-12-04T10:29:02;45.20;;;25.10;;
65071;SDS011;51663;52.310;17.016;2022-12-04T10:32:16;47.83;;;26.47;;
65071;SDS011;51663;52.310;17.016;2022-12-04T10:35:22;47.57;;;27.50;;
65071;SDS011;51663;52.310;17.016;2022-12-04T10:45:15;52.40;;;29.23;;
65071;SDS011;51663;52.310;17.016;2022-12-04T10:48:19;59.17;;;32.23;;
65071;SDS011;51663;52.310;17.016;2022-12-04T10:51:39;48.47;;;26.97;;
65071;SDS011;51663;52.310;17.016;2022-12-04T10:57:49;49.87;;;27.33;;
65071;SDS011;51663;52.310;17.016;2022-12-04T11:01:02;52.33;;;28.30;;
65071;SDS011;51663;52.310;17.016;2022-12-04T11:04:17;51.47;;;29.10;;
65071;SDS011;51663;52.310;17.016;2022-12-04T11:07:23;43.70;;;24.97;;
65071;SDS011;51663;52.310;17.016;2022-12-04T11:13:44;46.50;;;25.80;;
65071;SDS011;51663;52.310;17.016;2022-12-04T11:16:47;45.10;;;24.53;;
65071;SDS011;51663;52.310;17.016;2022-12-04T11:20:04;48.47;;;26.80;;
65071;SDS011;51663;52.310;17.016;2022-12-04T11:23:14;43.47;;;24.60;;
65071;SDS011;51663;52.310;17.016;2022-12-04T11:26:28;44.10;;;23.67;;
65071;SDS011;51663;52.310;17.016;2022-12-04T11:29:40;46.63;;;26.03;;
65071;SDS011;51663;52.310;17.016;2022-12-04T11:32:45;45.87;;;24.80;;
65071;SDS011;51663;52.310;17.016;2022-12-04T11:35:54;46.47;;;24.93;;
65071;SDS011;51663;52.310;17.016;2022-12-04T11:39:04;48.83;;;25.33;;
65071;SDS011;51663;52.310;17.016;2022-12-04T11:45:31;44.03;;;23.67;;
65071;SDS011;51663;52.310;17.016;2022-12-04T11:48:41;44.27;;;25.23;;
65071;SDS011;51663;52.310;17.016;2022-12-04T11:55:07;48.73;;;25.93;;
65071;SDS011;51663;52.310;17.016;2022-12-04T11:58:43;46.53;;;25.87;;
65071;SDS011;51663;52.310;17.016;2022-12-04T12:05:20;50.57;;;25.03;;
65071;SDS011;51663;52.310;17.016;2022-12-04T12:08:53;47.57;;;25.27;;
65071;SDS011;51663;52.310;17.016;2022-12-04T12:12:19;45.77;;;26.57;;
65071;SDS011;51663;52.310;17.016;2022-12-04T12:15:39;49.13;;;26.97;;
65071;SDS011;51663;52.310;17.016;2022-12-04T12:19:07;47.37;;;25.50;;
65071;SDS011;51663;52.310;17.016;2022-12-04T12:22:39;47.37;;;26.23;;
65071;SDS011;51663;52.310;17.016;2022-12-04T12:26:04;51.53;;;27.60;;
65071;SDS011;51663;52.310;17.016;2022-12-04T12:32:36;48.83;;;26.57;;
65071;SDS011;51663;52.310;17.016;2022-12-04T12:36:02;46.43;;;26.30;;
65071;SDS011;51663;52.310;17.016;2022-12-04T12:39:12;48.63;;;25.27;;
65071;SDS011;51663;52.310;17.016;2022-12-04T12:42:22;51.60;;;26.87;;
65071;SDS011;51663;52.310;17.016;2022-12-04T12:45:46;47.83;;;27.03;;
65071;SDS011;51663;52.310;17.016;2022-12-04T12:49:00;49.40;;;27.13;;
65071;SDS011;51663;52.310;17.016;2022-12-04T12:52:37;56.43;;;28.93;;
65071;SDS011;51663;52.310;17.016;2022-12-04T12:55:59;48.37;;;26.17;;
65071;SDS011;51663;52.310;17.016;2022-12-04T12:59:04;55.53;;;27.37;;
65071;SDS011;51663;52.310;17.016;2022-12-04T13:05:43;47.97;;;25.77;;
65071;SDS011;51663;52.310;17.016;2022-12-04T13:09:05;53.63;;;27.03;;
65071;SDS011;51663;52.310;17.016;2022-12-04T13:12:17;51.13;;;27.50;;
65071;SDS011;51663;52.310;17.016;2022-12-04T13:15:21;54.27;;;29.20;;
65071;SDS011;51663;52.310;17.016;2022-12-04T13:18:41;54.27;;;28.37;;
65071;SDS011;51663;52.310;17.016;2022-12-04T13:22:09;51.13;;;27.67;;
65071;SDS011;51663;52.310;17.016;2022-12-04T13:32:26;54.03;;;28.97;;
65071;SDS011;51663;52.310;17.016;2022-12-04T13:39:18;49.77;;;27.17;;
65071;SDS011;51663;52.310;17.016;2022-12-04T13:42:39;53.83;;;28.67;;
65071;SDS011;51663;52.310;17.016;2022-12-04T13:45:43;53.27;;;27.50;;
65071;SDS011;51663;52.310;17.016;2022-12-04T13:48:49;55.90;;;29.17;;
65071;SDS011;51663;52.310;17.016;2022-12-04T13:51:52;52.87;;;28.33;;
65071;SDS011;51663;52.310;17.016;2022-12-04T13:54:56;48.77;;;26.97;;
65071;SDS011;51663;52.310;17.016;2022-12-04T13:58:01;51.83;;;28.50;;
65071;SDS011;51663;52.310;17.016;2022-12-04T14:01:24;49.03;;;27.57;;
65071;SDS011;51663;52.310;17.016;2022-12-04T14:07:44;50.27;;;27.33;;
65071;SDS011;51663;52.310;17.016;2022-12-04T14:11:11;51.20;;;28.40;;
65071;SDS011;51663;52.310;17.016;2022-12-04T14:14:28;54.27;;;27.80;;
65071;SDS011;51663;52.310;17.016;2022-12-04T14:17:36;57.30;;;29.27;;
65071;SDS011;51663;52.310;17.016;2022-12-04T14:20:40;54.87;;;29.67;;
65071;SDS011;51663;52.310;17.016;2022-12-04T14:23:44;53.20;;;28.00;;
65071;SDS011;51663;52.310;17.016;2022-12-04T14:26:48;50.67;;;26.80;;
65071;SDS011;51663;52.310;17.016;2022-12-04T14:30:22;52.07;;;28.87;;
65071;SDS011;51663;52.310;17.016;2022-12-04T14:33:25;53.70;;;29.67;;
65071;SDS011;51663;52.310;17.016;2022-12-04T14:36:34;54.30;;;28.77;;
65071;SDS011;51663;52.310;17.016;2022-12-04T14:39:43;45.67;;;25.00;;
65071;SDS011;51663;52.310;17.016;2022-12-04T14:42:47;45.13;;;25.00;;
65071;SDS011;51663;52.310;17.016;2022-12-04T14:49:07;45.73;;;25.67;;
65071;SDS011;51663;52.310;17.016;2022-12-04T14:52:24;49.53;;;27.90;;
65071;SDS011;51663;52.310;17.016;2022-12-04T14:55:40;45.80;;;23.40;;
65071;SDS011;51663;52.310;17.016;2022-12-04T14:58:45;46.90;;;25.10;;
65071;SDS011;51663;52.310;17.016;2022-12-04T15:01:47;47.93;;;26.87;;
65071;SDS011;51663;52.310;17.016;2022-12-04T15:04:51;48.97;;;28.03;;
65071;SDS011;51663;52.310;17.016;2022-12-04T15:07:58;51.07;;;26.87;;
65071;SDS011;51663;52.310;17.016;2022-12-04T15:11:05;52.10;;;27.40;;
65071;SDS011;51663;52.310;17.016;2022-12-04T15:14:38;49.30;;;26.30;;
65071;SDS011;51663;52.310;17.016;2022-12-04T15:17:57;48.97;;;26.07;;
65071;SDS011;51663;52.310;17.016;2022-12-04T15:21:38;48.93;;;25.07;;
65071;SDS011;51663;52.310;17.016;2022-12-04T15:24:41;47.80;;;27.00;;
65071;SDS011;51663;52.310;17.016;2022-12-04T15:27:44;46.50;;;26.53;;
65071;SDS011;51663;52.310;17.016;2022-12-04T15:30:48;45.17;;;25.30;;
65071;SDS011;51663;52.310;17.016;2022-12-04T15:33:52;50.37;;;27.93;;
65071;SDS011;51663;52.310;17.016;2022-12-04T15:40:30;49.90;;;26.90;;
65071;SDS011;51663;52.310;17.016;2022-12-04T15:43:42;47.20;;;24.73;;
65071;SDS011;51663;52.310;17.016;2022-12-04T15:46:44;48.70;;;27.70;;
65071;SDS011;51663;52.310;17.016;2022-12-04T15:49:47;45.63;;;25.17;;
65071;SDS011;51663;52.310;17.016;2022-12-04T15:52:53;46.50;;;25.43;;
65071;SDS011;51663;52.310;17.016;2022-12-04T15:56:07;45.20;;;25.77;;
65071;SDS011;51663;52.310;17.016;2022-12-04T15:59:16;46.17;;;25.97;;
65071;SDS011;51663;52.310;17.016;2022-12-04T16:02:23;48.03;;;26.40;;
65071;SDS011;51663;52.310;17.016;2022-12-04T16:05:30;48.67;;;26.70;;
65071;SDS011;51663;52.310;17.016;2022-12-04T16:08:38;46.70;;;25.67;;
65071;SDS011;51663;52.310;17.016;2022-12-04T16:11:42;43.90;;;25.60;;
65071;SDS011;51663;52.310;17.016;2022-12-04T16:14:45;46.03;;;26.50;;
65071;SDS011;51663;52.310;17.016;2022-12-04T16:17:46;47.60;;;25.93;;
65071;SDS011;51663;52.310;17.016;2022-12-04T16:20:49;45.67;;;26.07;;
65071;SDS011;51663;52.310;17.016;2022-12-04T16:23:51;43.13;;;24.90;;
65071;SDS011;51663;52.310;17.016;2022-12-04T16:26:54;45.67;;;24.93;;
65071;SDS011;51663;52.310;17.016;2022-12-04T16:29:56;43.73;;;24.97;;
65071;SDS011;51663;52.310;17.016;2022-12-04T16:32:59;45.53;;;26.13;;
65071;SDS011;51663;52.310;17.016;2022-12-04T16:36:00;48.73;;;27.77;;
65071;SDS011;51663;52.310;17.016;2022-12-04T16:39:03;49.73;;;27.97;;
65071;SDS011;51663;52.310;17.016;2022-12-04T16:42:05;50.80;;;28.27;;
65071;SDS011;51663;52.310;17.016;2022-12-04T16:45:16;41.87;;;25.53;;
65071;SDS011;51663;52.310;17.016;2022-12-04T16:48:32;43.67;;;25.90;;
65071;SDS011;51663;52.310;17.016;2022-12-04T16:51:36;47.53;;;27.10;;
65071;SDS011;51663;52.310;17.016;2022-12-04T16:54:42;47.27;;;26.10;;
65071;SDS011;51663;52.310;17.016;2022-12-04T16:57:44;44.43;;;25.13;;
65071;SDS011;51663;52.310;17.016;2022-12-04T17:00:51;47.47;;;26.93;;
65071;SDS011;51663;52.310;17.016;2022-12-04T17:03:56;46.27;;;24.93;;
65071;SDS011;51663;52.310;17.016;2022-12-04T17:06:57;47.63;;;26.83;;
65071;SDS011;51663;52.310;17.016;2022-12-04T17:10:00;44.17;;;26.00;;
65071;SDS011;51663;52.310;17.016;2022-12-04T17:13:02;54.80;;;30.37;;
65071;SDS011;51663;52.310;17.016;2022-12-04T17:16:04;45.07;;;25.87;;
65071;SDS011;51663;52.310;17.016;2022-12-04T17:19:06;48.33;;;25.77;;
65071;SDS011;51663;52.310;17.016;2022-12-04T17:22:09;48.53;;;27.20;;
65071;SDS011;51663;52.310;17.016;2022-12-04T17:25:11;45.60;;;25.93;;
65071;SDS011;51663;52.310;17.016;2022-12-04T17:28:14;54.93;;;29.10;;
65071;SDS011;51663;52.310;17.016;2022-12-04T17:31:17;67.10;;;32.40;;
65071;SDS011;51663;52.310;17.016;2022-12-04T17:34:24;58.43;;;30.53;;
65071;SDS011;51663;52.310;17.016;2022-12-04T17:37:26;55.50;;;28.47;;
65071;SDS011;51663;52.310;17.016;2022-12-04T17:40:28;49.00;;;27.20;;
65071;SDS011;51663;52.310;17.016;2022-12-04T17:43:30;46.47;;;25.90;;
65071;SDS011;51663;52.310;17.016;2022-12-04T17:46:33;51.83;;;28.13;;
65071;SDS011;51663;52.310;17.016;2022-12-04T17:49:35;52.83;;;29.73;;
65071;SDS011;51663;52.310;17.016;2022-12-04T17:52:37;55.60;;;28.03;;
65071;SDS011;51663;52.310;17.016;2022-12-04T17:55:39;54.00;;;29.37;;
65071;SDS011;51663;52.310;17.016;2022-12-04T17:58:41;47.67;;;27.50;;
65071;SDS011;51663;52.310;17.016;2022-12-04T18:01:44;53.57;;;29.17;;
65071;SDS011;51663;52.310;17.016;2022-12-04T18:04:46;43.10;;;24.83;;
65071;SDS011;51663;52.310;17.016;2022-12-04T18:07:48;51.87;;;28.47;;
65071;SDS011;51663;52.310;17.016;2022-12-04T18:10:50;53.10;;;28.20;;
65071;SDS011;51663;52.310;17.016;2022-12-04T18:13:53;54.87;;;29.33;;
65071;SDS011;51663;52.310;17.016;2022-12-04T18:16:57;79.20;;;42.80;;
65071;SDS011;51663;52.310;17.016;2022-12-04T18:19:59;47.90;;;27.20;;
65071;SDS011;51663;52.310;17.016;2022-12-04T18:23:06;47.63;;;26.33;;
65071;SDS011;51663;52.310;17.016;2022-12-04T18:26:08;48.07;;;26.47;;
65071;SDS011;51663;52.310;17.016;2022-12-04T18:29:12;50.33;;;26.47;;
65071;SDS011;51663;52.310;17.016;2022-12-04T18:32:15;52.33;;;29.20;;
65071;SDS011;51663;52.310;17.016;2022-12-04T18:35:18;49.53;;;26.20;;
65071;SDS011;51663;52.310;17.016;2022-12-04T18:38:20;51.27;;;27.77;;
65071;SDS011;51663;52.310;17.016;2022-12-04T18:41:23;43.20;;;24.97;;
65071;SDS011;51663;52.310;17.016;2022-12-04T18:44:26;48.37;;;25.13;;
65071;SDS011;51663;52.310;17.016;2022-12-04T18:47:28;46.77;;;25.37;;
65071;SDS011;51663;52.310;17.016;2022-12-04T18:50:31;51.20;;;26.77;;
65071;SDS011;51663;52.310;17.016;2022-12-04T18:53:33;49.57;;;29.50;;
65071;SDS011;51663;52.310;17.016;2022-12-04T18:56:35;49.17;;;26.23;;
65071;SDS011;51663;52.310;17.016;2022-12-04T18:59:38;50.23;;;28.10;;
65071;SDS011;51663;52.310;17.016;2022-12-04T19:02:40;49.17;;;27.57;;
65071;SDS011;51663;52.310;17.016;2022-12-04T19:05:49;45.80;;;26.17;;
65071;SDS011;51663;52.310;17.016;2022-12-04T19:08:52;47.80;;;27.67;;
65071;SDS011;51663;52.310;17.016;2022-12-04T19:11:54;50.93;;;28.03;;
65071;SDS011;51663;52.310;17.016;2022-12-04T19:14:56;55.73;;;29.43;;